Time;durP1;ratioP1;P1;durP2;ratioP2;P2;SDS_P1;SDS_P2;PMS_P1;PMS_P2;Temp;Humidity;BMP_temperature;BMP_pressure;BME280_temperature;BME280_humidity;BME280_pressure;Samples;Min_cycle;Max_cycle;Signal;HPM_P1;HPM_P2
2022/06/26 00:00:46;;;;;;;3.73;3.43;;;20.90;91.00;;;;;;5012106;28;20536;-61
2022/06/26 00:03:14;;;;;;;4.33;3.90;;;20.90;91.30;;;;;;5012552;28;20465;-64
2022/06/26 00:05:43;;;;;;;4.77;4.10;;;20.80;91.50;;;;;;5012683;28;20521;-63
2022/06/26 00:08:10;;;;;;;4.10;3.73;;;20.80;91.70;;;;;;5012151;28;20469;-63
2022/06/26 00:10:37;;;;;;;3.60;3.30;;;20.70;91.90;;;;;;5012239;28;20462;-63
2022/06/26 00:13:05;;;;;;;4.00;3.70;;;20.70;92.00;;;;;;5012710;28;20901;-62
2022/06/26 00:15:32;;;;;;;6.80;3.60;;;20.70;92.10;;;;;;5011121;28;20481;-62
2022/06/26 00:17:59;;;;;;;6.57;3.93;;;20.60;92.10;;;;;;5013320;28;20534;-63
2022/06/26 00:20:27;;;;;;;5.40;3.50;;;20.60;92.20;;;;;;5010961;28;20458;-63
2022/06/26 00:22:55;;;;;;;3.50;3.20;;;20.60;92.30;;;;;;5012205;28;21004;-63
2022/06/26 00:25:23;;;;;;;4.13;3.83;;;20.50;92.40;;;;;;5014382;28;20463;-63
2022/06/26 00:27:50;;;;;;;4.17;3.80;;;20.50;92.50;;;;;;5017056;28;20452;-63
2022/06/26 00:30:19;;;;;;;4.90;3.37;;;20.50;92.60;;;;;;5016010;28;20469;-63
2022/06/26 00:32:46;;;;;;;4.07;3.70;;;20.40;92.60;;;;;;5016853;28;20476;-63
2022/06/26 00:35:13;;;;;;;4.20;3.80;;;20.40;92.70;;;;;;5014343;28;20497;-62
2022/06/26 00:37:40;;;;;;;3.93;3.63;;;20.40;92.90;;;;;;5016818;28;20551;-62
2022/06/26 00:40:10;;;;;;;5.37;3.83;;;20.40;93.00;;;;;;5015762;28;20555;-62
2022/06/26 00:42:37;;;;;;;4.20;3.80;;;20.30;93.40;;;;;;5017672;28;20498;-62
2022/06/26 00:45:06;;;;;;;4.63;4.20;;;20.30;93.30;;;;;;5018014;28;20514;-63
2022/06/26 00:47:33;;;;;;;4.10;3.80;;;20.20;93.30;;;;;;5016361;28;20469;-63
2022/06/26 00:50:01;;;;;;;4.20;3.80;;;20.20;93.50;;;;;;5017754;28;20458;-64
2022/06/26 00:52:29;;;;;;;3.40;3.20;;;20.20;93.50;;;;;;5020467;28;20503;-63
2022/06/26 00:54:57;;;;;;;4.93;3.60;;;20.20;93.50;;;;;;5019022;28;20545;-64
2022/06/26 00:57:26;;;;;;;5.00;3.73;;;20.20;93.30;;;;;;5015723;28;20459;-63
2022/06/26 00:59:53;;;;;;;4.20;3.80;;;20.20;93.00;;;;;;5017442;28;20531;-62
2022/06/26 01:02:20;;;;;;;3.70;3.40;;;20.20;92.90;;;;;;5015729;28;20526;-63
2022/06/26 01:04:47;;;;;;;3.80;3.47;;;20.20;92.60;;;;;;5015761;28;20556;-63
2022/06/26 01:07:15;;;;;;;7.13;3.70;;;20.20;92.50;;;;;;5016748;28;20442;-63
2022/06/26 01:09:43;;;;;;;4.27;3.87;;;20.20;92.40;;;;;;5015496;28;20526;-63
2022/06/26 01:12:10;;;;;;;3.57;3.27;;;20.20;92.40;;;;;;5015635;28;20492;-64
2022/06/26 01:14:39;;;;;;;3.57;3.27;;;20.10;92.30;;;;;;5014093;28;20488;-63
2022/06/26 01:17:07;;;;;;;4.57;3.20;;;20.10;92.20;;;;;;5015501;28;20465;-63
2022/06/26 01:19:35;;;;;;;3.20;3.00;;;20.10;92.10;;;;;;5015577;28;20816;-62
2022/06/26 01:22:02;;;;;;;3.70;3.20;;;20.10;92.00;;;;;;5017011;28;20473;-63
2022/06/26 01:24:31;;;;;;;3.27;3.07;;;20.10;91.90;;;;;;5015250;28;20499;-63
2022/06/26 01:27:00;;;;;;;4.40;4.00;;;20.10;91.80;;;;;;5015273;28;21025;-63
2022/06/26 01:29:27;;;;;;;3.23;3.03;;;20.10;91.70;;;;;;5015105;28;20498;-63
2022/06/26 01:31:54;;;;;;;3.63;3.33;;;20.10;91.60;;;;;;5014680;28;20585;-63
2022/06/26 01:34:22;;;;;;;3.50;3.20;;;20.10;91.50;;;;;;5015120;28;20521;-63
2022/06/26 01:36:49;;;;;;;3.20;2.90;;;20.10;91.40;;;;;;5014788;28;20828;-64
2022/06/26 01:39:20;;;;;;;3.60;3.30;;;20.10;91.30;;;;;;5015089;28;20468;-62
2022/06/26 01:41:50;;;;;;;4.13;3.67;;;20.10;91.20;;;;;;5015193;28;20483;-63
2022/06/26 01:44:17;;;;;;;3.30;3.00;;;20.10;91.30;;;;;;5013751;28;20952;-62
2022/06/26 01:46:45;;;;;;;3.57;3.03;;;20.10;90.90;;;;;;5014657;28;20964;-63
2022/06/26 01:49:14;;;;;;;3.23;3.03;;;20.10;90.80;;;;;;5015164;28;20506;-63
2022/06/26 01:51:41;;;;;;;3.80;3.40;;;20.10;90.50;;;;;;5015554;28;20470;-62
2022/06/26 01:54:09;;;;;;;3.10;2.73;;;20.10;90.30;;;;;;5012258;28;20468;-62
2022/06/26 01:56:36;;;;;;;3.10;2.80;;;20.20;90.10;;;;;;5013879;28;20483;-63
2022/06/26 01:59:05;;;;;;;4.93;2.83;;;20.10;90.20;;;;;;5014485;28;20496;-62
2022/06/26 02:01:33;;;;;;;3.40;3.10;;;20.20;89.70;;;;;;5014956;28;20916;-63
2022/06/26 02:04:01;;;;;;;3.90;3.60;;;20.10;89.30;;;;;;5014667;28;20471;-63
2022/06/26 02:06:28;;;;;;;5.17;3.30;;;20.10;89.10;;;;;;5016444;28;20821;-64
2022/06/26 02:08:55;;;;;;;3.20;2.90;;;20.10;89.00;;;;;;5014070;28;20469;-63
2022/06/26 02:14:09;;;;;;;3.57;3.20;;;20.10;88.90;;;;;;5014207;28;20435;-63
2022/06/26 02:16:37;;;;;;;2.93;2.63;;;20.00;88.80;;;;;;5014181;28;20571;-63
2022/06/26 02:19:04;;;;;;;3.43;3.10;;;20.00;88.80;;;;;;5013299;28;21006;-62
2022/06/26 02:21:33;;;;;;;4.77;3.40;;;20.00;88.80;;;;;;5015313;28;20495;-62
2022/06/26 02:24:01;;;;;;;3.30;3.00;;;20.00;88.90;;;;;;5011485;28;20464;-62
2022/06/26 02:26:28;;;;;;;3.13;2.93;;;19.90;88.90;;;;;;5014960;28;20499;-63
2022/06/26 02:28:56;;;;;;;3.27;3.07;;;19.90;89.10;;;;;;5013180;28;20471;-62
2022/06/26 02:31:25;;;;;;;3.70;3.40;;;19.90;89.20;;;;;;5013571;28;20591;-62
2022/06/26 02:33:52;;;;;;;3.47;3.17;;;19.80;89.30;;;;;;5014427;28;20863;-62
2022/06/26 02:36:20;;;;;;;3.50;3.30;;;19.80;89.50;;;;;;5014351;28;20587;-63
2022/06/26 02:38:47;;;;;;;2.90;2.70;;;19.80;89.50;;;;;;5014020;28;20470;-62
2022/06/26 02:41:14;;;;;;;3.50;3.30;;;19.80;89.60;;;;;;5014008;28;20580;-63
2022/06/26 02:43:42;;;;;;;3.30;3.00;;;19.70;89.80;;;;;;5014355;28;20462;-63
2022/06/26 02:46:09;;;;;;;3.53;3.23;;;19.70;90.00;;;;;;5014495;28;20831;-63
2022/06/26 02:48:38;;;;;;;3.37;3.07;;;19.70;90.10;;;;;;5012642;28;20458;-64
2022/06/26 02:51:06;;;;;;;3.20;2.90;;;19.60;90.20;;;;;;5013883;28;20486;-63
2022/06/26 02:53:33;;;;;;;4.53;3.20;;;19.60;90.30;;;;;;5010603;28;20839;-63
2022/06/26 02:56:00;;;;;;;6.20;3.40;;;19.60;90.40;;;;;;5014096;28;20964;-63
2022/06/26 02:58:28;;;;;;;4.70;3.80;;;19.50;90.50;;;;;;5011198;28;20541;-62
2022/06/26 03:00:55;;;;;;;3.83;3.40;;;19.50;90.60;;;;;;5013563;28;20483;-63
2022/06/26 03:03:22;;;;;;;3.83;3.53;;;19.50;90.70;;;;;;5013036;28;20528;-63
2022/06/26 03:05:52;;;;;;;4.63;3.33;;;19.50;90.70;;;;;;5014350;28;20977;-63
2022/06/26 03:08:19;;;;;;;3.90;3.43;;;19.50;90.80;;;;;;5013396;28;20479;-63
2022/06/26 03:10:47;;;;;;;4.37;3.23;;;19.50;90.90;;;;;;5013955;28;20557;-63
2022/06/26 03:13:15;;;;;;;4.00;3.60;;;19.40;91.00;;;;;;5013966;28;20446;-63
2022/06/26 03:15:42;;;;;;;5.67;3.70;;;19.40;91.10;;;;;;5011268;28;20529;-62
2022/06/26 03:18:09;;;;;;;3.60;3.30;;;19.40;91.20;;;;;;5011340;28;20466;-61
2022/06/26 03:20:37;;;;;;;4.10;3.70;;;19.40;91.40;;;;;;4994254;28;20478;-64
2022/06/26 03:23:05;;;;;;;4.10;3.80;;;19.40;91.50;;;;;;4994750;28;20455;-62
2022/06/26 03:25:33;;;;;;;3.70;3.40;;;19.40;91.60;;;;;;5013464;28;21022;-63
2022/06/26 03:28:00;;;;;;;3.90;3.60;;;19.40;91.80;;;;;;5014025;28;20886;-63
2022/06/26 03:30:28;;;;;;;4.13;3.60;;;19.40;91.90;;;;;;5012067;28;20540;-62
2022/06/26 03:32:55;;;;;;;4.00;3.60;;;19.40;92.10;;;;;;5015100;28;20479;-62
2022/06/26 03:35:23;;;;;;;4.30;3.90;;;19.40;92.20;;;;;;5015401;28;20518;-63
2022/06/26 03:37:50;;;;;;;3.87;3.17;;;19.40;92.30;;;;;;5015156;28;20508;-62
2022/06/26 03:40:19;;;;;;;4.70;3.70;;;19.40;92.40;;;;;;5012426;28;20513;-62
2022/06/26 03:42:48;;;;;;;4.00;3.60;;;19.40;92.40;;;;;;5013834;28;20562;-63
2022/06/26 03:45:15;;;;;;;3.57;3.27;;;19.50;92.50;;;;;;5012838;28;20951;-63
2022/06/26 03:47:42;;;;;;;5.57;3.90;;;19.50;92.50;;;;;;5012879;28;20507;-63
2022/06/26 03:50:10;;;;;;;4.37;3.83;;;19.50;92.40;;;;;;5011030;28;20461;-62
2022/06/26 03:52:37;;;;;;;4.00;3.60;;;19.60;92.60;;;;;;5013292;28;20975;-62
2022/06/26 03:55:05;;;;;;;6.63;4.60;;;19.60;92.70;;;;;;5012198;28;20467;-62
2022/06/26 03:57:34;;;;;;;5.17;4.23;;;19.70;92.90;;;;;;5016484;28;21043;-63
2022/06/26 04:00:01;;;;;;;4.90;4.40;;;19.90;92.80;;;;;;5023789;28;20452;-62
2022/06/26 04:02:29;;;;;;;3.90;3.50;;;20.20;92.70;;;;;;5024422;28;20516;-63
2022/06/26 04:04:56;;;;;;;4.17;3.77;;;20.60;92.00;;;;;;5024012;28;20716;-63
2022/06/26 04:09:54;;;;;;;4.13;3.73;;;21.50;88.40;;;;;;5105600;27;20601;-63
2022/06/26 04:12:22;;;;;;;3.57;3.27;;;21.80;87.00;;;;;;5096264;28;20488;-63
2022/06/26 04:14:50;;;;;;;4.20;3.83;;;22.00;85.70;;;;;;5095225;28;20956;-63
2022/06/26 04:17:17;;;;;;;3.70;3.40;;;22.50;83.50;;;;;;5094815;28;20466;-63
2022/06/26 04:19:45;;;;;;;4.07;3.77;;;23.00;80.40;;;;;;5094882;28;20467;-64
2022/06/26 04:22:12;;;;;;;3.70;2.93;;;23.60;76.70;;;;;;5091109;28;20482;-65
2022/06/26 04:24:39;;;;;;;4.20;3.30;;;24.20;72.70;;;;;;5089853;28;20958;-64
2022/06/26 04:27:08;;;;;;;3.27;2.97;;;24.70;69.40;;;;;;5089596;28;20525;-64
2022/06/26 04:29:36;;;;;;;3.73;2.90;;;25.10;66.60;;;;;;5089527;28;20540;-64
2022/06/26 04:32:03;;;;;;;3.20;2.90;;;25.40;64.20;;;;;;5090408;28;20454;-63
2022/06/26 04:34:31;;;;;;;3.60;3.30;;;25.80;62.10;;;;;;5090099;28;20490;-63
2022/06/26 04:36:58;;;;;;;4.57;3.23;;;26.00;60.40;;;;;;5089707;28;20462;-65
2022/06/26 04:39:25;;;;;;;3.57;3.30;;;26.20;59.30;;;;;;5089396;28;20543;-64
2022/06/26 04:41:53;;;;;;;3.73;3.43;;;26.20;58.60;;;;;;5088744;28;20535;-63
2022/06/26 04:44:21;;;;;;;3.50;3.20;;;26.20;58.20;;;;;;5089852;28;20573;-64
2022/06/26 04:46:49;;;;;;;3.47;3.17;;;26.30;57.90;;;;;;5090350;28;20545;-65
2022/06/26 04:49:17;;;;;;;3.40;3.10;;;26.40;58.00;;;;;;5089435;28;20848;-63
2022/06/26 04:51:44;;;;;;;4.03;3.73;;;26.40;57.00;;;;;;5089182;28;20992;-64
2022/06/26 04:54:11;;;;;;;4.13;3.73;;;26.40;56.80;;;;;;5087516;28;20598;-63
2022/06/26 04:56:39;;;;;;;3.83;2.90;;;26.50;56.40;;;;;;5088149;28;20490;-63
2022/06/26 04:59:07;;;;;;;3.40;3.10;;;26.70;55.80;;;;;;5077392;28;20451;-65
2022/06/26 05:01:37;;;;;;;3.40;3.10;;;27.10;55.00;;;;;;5089353;28;20458;-65
2022/06/26 05:04:04;;;;;;;4.20;2.90;;;27.40;54.30;;;;;;5089369;28;20507;-65
2022/06/26 05:06:32;;;;;;;3.13;2.93;;;27.60;53.60;;;;;;5090065;28;20499;-64
2022/06/26 05:08:59;;;;;;;3.80;3.20;;;27.90;52.90;;;;;;5088838;28;20528;-64
2022/06/26 05:11:26;;;;;;;3.07;2.87;;;28.10;52.30;;;;;;5088686;28;20466;-65
2022/06/26 05:13:54;;;;;;;2.87;2.67;;;28.30;51.80;;;;;;5087498;28;20818;-65
2022/06/26 05:16:21;;;;;;;2.93;2.63;;;28.40;51.20;;;;;;5076385;28;20531;-65
2022/06/26 05:18:50;;;;;;;2.77;2.50;;;28.40;50.80;;;;;;5087716;28;20957;-64
2022/06/26 05:21:17;;;;;;;2.67;2.47;;;28.40;50.60;;;;;;5074158;28;20611;-67
2022/06/26 05:23:44;;;;;;;2.50;2.30;;;28.50;50.20;;;;;;5073999;28;20494;-65
2022/06/26 05:26:12;;;;;;;2.70;2.50;;;28.60;49.70;;;;;;5059078;28;20451;-65
2022/06/26 05:28:39;;;;;;;4.60;2.80;;;28.70;49.10;;;;;;5075242;28;20501;-63
2022/06/26 05:31:06;;;;;;;3.13;2.73;;;28.70;48.70;;;;;;5074986;28;20766;-65
2022/06/26 05:33:33;;;;;;;2.70;2.50;;;28.40;48.80;;;;;;5075043;28;20463;-66
2022/06/26 05:36:03;;;;;;;4.13;2.87;;;28.20;49.40;;;;;;5075478;28;20538;-63
2022/06/26 05:38:30;;;;;;;2.73;2.40;;;28.00;49.70;;;;;;5073218;28;20463;-66
2022/06/26 05:40:57;;;;;;;3.30;2.57;;;27.60;50.20;;;;;;5073579;28;20533;-65
2022/06/26 05:43:25;;;;;;;2.70;2.50;;;27.30;51.20;;;;;;5075650;28;20467;-65
2022/06/26 05:45:52;;;;;;;4.10;2.30;;;27.30;51.40;;;;;;5073888;28;20463;-64
2022/06/26 05:48:19;;;;;;;2.87;2.53;;;27.40;51.50;;;;;;5074258;28;20478;-66
2022/06/26 05:50:47;;;;;;;2.70;2.50;;;27.40;51.40;;;;;;5074973;28;20446;-65
2022/06/26 05:53:15;;;;;;;4.30;2.40;;;27.50;51.10;;;;;;5074028;28;20467;-65
2022/06/26 05:55:43;;;;;;;2.93;2.10;;;27.60;50.80;;;;;;5073827;28;20954;-64
2022/06/26 05:58:11;;;;;;;2.87;2.57;;;27.60;50.80;;;;;;5073659;28;20459;-65
2022/06/26 06:00:39;;;;;;;3.70;2.43;;;27.70;50.60;;;;;;5072678;28;20459;-65
2022/06/26 06:03:07;;;;;;;2.50;2.30;;;27.80;50.50;;;;;;5073923;28;20471;-64
2022/06/26 06:05:35;;;;;;;2.50;2.30;;;27.70;50.40;;;;;;5074864;28;20496;-64
2022/06/26 06:08:02;;;;;;;2.93;2.60;;;27.50;50.50;;;;;;5075154;28;20542;-64
2022/06/26 06:10:31;;;;;;;3.50;2.47;;;27.10;51.20;;;;;;5076892;28;20505;-63
2022/06/26 06:12:59;;;;;;;3.70;2.70;;;26.80;52.00;;;;;;5074453;28;20536;-63
2022/06/26 06:15:26;;;;;;;4.73;2.50;;;26.70;52.40;;;;;;5074356;28;20887;-64
2022/06/26 06:17:53;;;;;;;2.50;2.30;;;26.70;52.70;;;;;;5073490;28;20447;-63
2022/06/26 06:20:22;;;;;;;2.80;2.60;;;26.70;52.70;;;;;;5073408;28;20435;-65
2022/06/26 06:22:53;;;;;;;3.03;2.83;;;26.80;52.70;;;;;;5073624;28;20844;-64
2022/06/26 06:25:21;;;;;;;3.03;2.83;;;26.70;52.90;;;;;;5074433;28;20493;-64
2022/06/26 06:27:51;;;;;;;3.00;2.80;;;26.50;53.30;;;;;;5073688;28;20520;-62
2022/06/26 06:30:19;;;;;;;3.40;2.87;;;26.50;53.60;;;;;;5072704;28;20478;-64
2022/06/26 06:32:47;;;;;;;4.10;2.77;;;26.60;53.60;;;;;;5073115;28;20463;-64
2022/06/26 06:35:15;;;;;;;2.80;2.50;;;26.70;53.30;;;;;;5073440;28;21072;-64
2022/06/26 06:37:43;;;;;;;3.47;2.77;;;26.80;53.10;;;;;;5073837;28;20447;-64
2022/06/26 06:40:11;;;;;;;3.20;2.70;;;26.70;53.10;;;;;;5054564;28;20989;-64
2022/06/26 06:42:39;;;;;;;3.70;2.67;;;26.70;53.30;;;;;;5066902;28;20537;-64
2022/06/26 06:45:09;;;;;;;2.97;2.77;;;26.70;53.30;;;;;;5073193;28;20547;-64
2022/06/26 06:47:37;;;;;;;3.00;2.80;;;26.80;53.10;;;;;;5074922;28;20478;-64
2022/06/26 06:50:04;;;;;;;2.80;2.60;;;27.00;53.00;;;;;;5073902;28;20475;-63
2022/06/26 06:52:32;;;;;;;4.67;2.80;;;27.00;52.60;;;;;;5068053;28;20914;-64
2022/06/26 06:54:59;;;;;;;6.60;3.37;;;27.10;52.20;;;;;;5067787;28;20603;-64
2022/06/26 06:57:26;;;;;;;2.70;2.50;;;27.20;51.70;;;;;;5071442;28;20858;-64
2022/06/26 06:59:54;;;;;;;3.20;3.00;;;27.30;51.50;;;;;;5054921;28;20440;-64
2022/06/26 07:02:22;;;;;;;3.03;2.60;;;27.20;51.30;;;;;;5070904;28;20518;-62
2022/06/26 07:04:50;;;;;;;2.40;2.27;;;27.20;51.20;;;;;;5074132;28;20455;-64
2022/06/26 07:07:17;;;;;;;3.70;2.70;;;27.10;50.60;;;;;;5072226;28;20447;-63
2022/06/26 07:09:44;;;;;;;4.87;2.20;;;26.90;50.30;;;;;;5053822;28;20542;-64
2022/06/26 07:12:12;;;;;;;3.80;2.70;;;26.80;50.50;;;;;;5054149;28;20517;-64
2022/06/26 07:14:39;;;;;;;4.07;2.60;;;26.70;50.60;;;;;;5053834;28;20512;-64
2022/06/26 07:17:08;;;;;;;2.60;2.40;;;26.60;50.70;;;;;;5054133;28;20501;-63
2022/06/26 07:19:37;;;;;;;3.23;2.53;;;26.50;50.70;;;;;;5068474;28;20455;-64
2022/06/26 07:22:05;;;;;;;3.07;2.70;;;26.40;50.90;;;;;;5072387;28;20483;-64
2022/06/26 07:24:32;;;;;;;2.60;2.40;;;26.40;51.20;;;;;;5069741;28;20464;-64
2022/06/26 07:26:59;;;;;;;3.30;2.80;;;26.20;51.50;;;;;;5053392;28;20514;-62
2022/06/26 07:29:27;;;;;;;3.17;2.97;;;26.20;51.80;;;;;;5063562;28;20525;-63
2022/06/26 07:31:54;;;;;;;3.33;3.03;;;26.20;52.00;;;;;;5072519;28;20486;-63
2022/06/26 07:34:23;;;;;;;3.47;3.17;;;26.20;52.30;;;;;;5073295;28;20502;-63
2022/06/26 07:36:52;;;;;;;3.93;3.10;;;26.10;52.40;;;;;;5073310;28;20495;-62
2022/06/26 07:39:22;;;;;;;3.27;2.97;;;26.20;52.70;;;;;;5073791;28;20473;-63
2022/06/26 07:41:50;;;;;;;3.80;3.37;;;26.20;52.90;;;;;;5062131;28;20514;-63
2022/06/26 07:44:18;;;;;;;3.50;3.20;;;26.10;53.20;;;;;;5053256;28;20452;-64
2022/06/26 07:46:45;;;;;;;4.10;3.40;;;26.10;53.60;;;;;;5053662;28;20488;-64
2022/06/26 07:49:13;;;;;;;3.90;3.60;;;26.10;53.90;;;;;;5063146;28;20489;-64
2022/06/26 07:51:40;;;;;;;5.07;3.97;;;26.20;54.20;;;;;;5073572;28;20558;-63
2022/06/26 07:54:10;;;;;;;4.83;4.17;;;26.10;54.30;;;;;;5072262;28;20463;-63
2022/06/26 07:56:38;;;;;;;4.07;3.67;;;26.00;54.70;;;;;;5073488;28;20482;-64
2022/06/26 07:59:05;;;;;;;4.70;4.30;;;25.90;55.00;;;;;;5062686;28;20535;-63
2022/06/26 08:01:33;;;;;;;4.40;3.97;;;25.90;55.30;;;;;;5053183;28;20551;-63
2022/06/26 08:04:00;;;;;;;4.13;3.60;;;25.90;55.40;;;;;;5052844;28;20462;-63
2022/06/26 08:06:27;;;;;;;4.53;4.13;;;25.80;55.40;;;;;;5053562;28;20850;-62
2022/06/26 08:08:55;;;;;;;4.60;4.20;;;25.90;55.30;;;;;;5052958;28;20546;-62
2022/06/26 08:11:24;;;;;;;5.90;4.60;;;26.00;55.10;;;;;;5064469;28;20491;-64
2022/06/26 08:13:51;;;;;;;4.37;3.97;;;26.10;55.10;;;;;;5056642;28;20452;-63
2022/06/26 08:16:19;;;;;;;7.93;4.90;;;26.10;54.90;;;;;;5062188;28;20513;-64
2022/06/26 08:18:46;;;;;;;4.50;4.20;;;26.10;54.80;;;;;;5072931;28;20503;-63
2022/06/26 08:23:58;;;;;;;5.40;3.90;;;26.20;54.70;;;;;;5071678;28;20453;-65
2022/06/26 08:26:27;;;;;;;4.30;4.00;;;26.30;54.40;;;;;;5073906;28;20743;-64
2022/06/26 08:28:54;;;;;;;4.53;3.97;;;26.40;54.40;;;;;;5072176;28;20520;-61
2022/06/26 08:31:22;;;;;;;3.80;3.50;;;26.40;54.10;;;;;;5072979;28;20471;-62
2022/06/26 08:33:49;;;;;;;3.77;3.47;;;26.50;53.90;;;;;;5071625;28;20484;-62
2022/06/26 08:36:16;;;;;;;3.80;3.50;;;26.60;53.60;;;;;;5073092;28;20508;-61
2022/06/26 08:38:44;;;;;;;3.13;2.93;;;26.70;53.40;;;;;;5073198;28;20439;-63
2022/06/26 08:41:14;;;;;;;3.50;3.20;;;26.70;53.10;;;;;;5073420;28;20513;-66
2022/06/26 08:43:43;;;;;;;3.50;3.30;;;26.70;52.50;;;;;;5076110;28;20531;-66
2022/06/26 08:46:10;;;;;;;3.47;3.17;;;26.70;52.20;;;;;;5082174;28;20474;-64
2022/06/26 08:48:43;;;;;;;3.47;3.10;;;26.80;52.00;;;;;;5083226;28;20493;-66
2022/06/26 08:51:11;;;;;;;3.60;3.30;;;26.90;51.90;;;;;;5084374;28;20479;-64
2022/06/26 08:53:40;;;;;;;3.53;3.23;;;26.90;52.00;;;;;;5080967;28;20443;-64
2022/06/26 08:56:07;;;;;;;3.77;3.43;;;26.90;52.20;;;;;;5083789;28;20450;-65
2022/06/26 08:58:34;;;;;;;3.70;3.37;;;27.00;52.20;;;;;;5080783;28;20474;-64
2022/06/26 09:01:04;;;;;;;2.90;2.70;;;27.10;51.80;;;;;;5079415;28;20459;-62
2022/06/26 09:03:33;;;;;;;3.60;2.80;;;27.30;51.50;;;;;;5079561;28;20482;-64
2022/06/26 09:06:01;;;;;;;4.60;3.13;;;27.50;51.30;;;;;;5078721;28;20489;-64
2022/06/26 09:08:29;;;;;;;2.60;2.40;;;27.60;51.00;;;;;;5083911;28;20459;-64
2022/06/26 09:10:57;;;;;;;2.53;2.33;;;27.70;50.40;;;;;;5079855;28;20489;-65
2022/06/26 09:13:24;;;;;;;2.20;2.10;;;27.80;50.00;;;;;;5079392;28;20468;-64
2022/06/26 09:15:52;;;;;;;2.83;2.60;;;27.80;49.70;;;;;;5078302;28;20935;-63
2022/06/26 09:18:20;;;;;;;3.07;2.77;;;27.80;49.90;;;;;;5077258;28;20438;-64
2022/06/26 09:20:52;;;;;;;3.50;2.80;;;27.80;49.80;;;;;;5077323;28;20450;-62
2022/06/26 09:23:20;;;;;;;3.07;2.87;;;28.00;49.40;;;;;;5076942;28;20530;-64
2022/06/26 09:25:48;;;;;;;4.13;2.87;;;28.20;49.10;;;;;;5076042;28;20443;-61
2022/06/26 09:28:16;;;;;;;3.07;2.87;;;28.40;48.70;;;;;;5076143;28;20504;-62
2022/06/26 09:30:52;;;;;;;4.10;3.17;;;28.60;48.60;;;;;;5075727;28;20474;-63
2022/06/26 09:33:22;;;;;;;2.97;2.67;;;28.60;48.70;;;;;;5076074;28;20489;-64
2022/06/26 09:35:49;;;;;;;3.00;2.80;;;28.90;48.00;;;;;;5076506;28;20477;-64
2022/06/26 09:38:21;;;;;;;2.87;2.60;;;29.20;47.30;;;;;;5075781;28;20443;-64
2022/06/26 09:40:50;;;;;;;3.17;2.97;;;29.30;47.00;;;;;;5075303;28;20431;-63
2022/06/26 09:43:26;;;;;;;3.00;2.70;;;29.30;46.80;;;;;;5075672;28;20809;-64
2022/06/26 09:45:54;;;;;;;4.43;2.97;;;29.30;46.70;;;;;;5075987;28;20431;-63
2022/06/26 09:48:25;;;;;;;2.27;2.10;;;29.20;46.80;;;;;;5075716;28;20538;-65
2022/06/26 09:50:53;;;;;;;2.40;2.13;;;29.20;46.80;;;;;;5075610;28;20569;-63
2022/06/26 09:53:21;;;;;;;2.37;2.17;;;29.30;46.30;;;;;;5075947;28;20497;-62
2022/06/26 09:55:49;;;;;;;2.10;2.00;;;29.30;45.90;;;;;;5075497;28;20560;-65
2022/06/26 09:58:17;;;;;;;3.70;2.67;;;29.20;45.70;;;;;;5075624;28;20530;-63
2022/06/26 10:06:25;;;;;;;3.70;2.50;;;29.20;46.00;;;;;;5075152;28;20451;-62
2022/06/26 10:06:26;;;;;;;2.60;2.40;;;29.20;46.40;;;;;;5075410;28;20415;-64
2022/06/26 10:08:55;;;;;;;2.70;2.50;;;29.20;46.40;;;;;;5075155;28;20462;-67
2022/06/26 10:11:27;;;;;;;3.10;2.47;;;29.10;46.50;;;;;;5074967;28;21045;-66
2022/06/26 10:13:59;;;;;;;4.67;3.60;;;28.90;47.00;;;;;;5074747;28;20432;-66
2022/06/26 10:16:49;;;;;;;3.33;3.00;;;28.60;47.60;;;;;;5077170;28;20431;-66
2022/06/26 10:19:26;;;;;;;3.70;2.80;;;28.30;48.20;;;;;;5084042;28;20930;-67
2022/06/26 10:21:54;;;;;;;3.93;2.90;;;28.20;48.70;;;;;;5078571;28;20516;-66
2022/06/26 10:24:21;;;;;;;3.40;3.10;;;28.10;49.00;;;;;;5077456;28;20439;-64
2022/06/26 10:26:53;;;;;;;3.57;3.27;;;27.90;49.10;;;;;;5076177;28;20946;-67
2022/06/26 10:29:20;;;;;;;5.13;3.30;;;27.90;49.50;;;;;;5074966;28;20796;-66
2022/06/26 10:31:49;;;;;;;3.33;3.03;;;27.90;49.70;;;;;;5074242;28;20522;-66
2022/06/26 10:34:19;;;;;;;2.90;2.70;;;27.90;49.70;;;;;;5074920;28;20451;-65
2022/06/26 10:36:58;;;;;;;4.73;3.23;;;28.00;49.40;;;;;;5074403;28;20450;-65
2022/06/26 10:39:37;;;;;;;3.47;3.17;;;27.90;48.80;;;;;;5074760;28;20910;-65
2022/06/26 10:44:56;;;;;;;4.13;3.83;;;27.60;49.40;;;;;;5074964;28;20781;-67
2022/06/26 10:47:23;;;;;;;3.40;3.10;;;27.50;50.00;;;;;;5074463;28;20431;-67
2022/06/26 10:49:52;;;;;;;3.17;2.93;;;27.50;50.50;;;;;;5074372;28;20552;-68
2022/06/26 10:52:31;;;;;;;3.90;3.50;;;27.50;50.60;;;;;;5073958;28;21056;-65
2022/06/26 10:54:59;;;;;;;4.27;3.87;;;27.50;50.40;;;;;;5074712;28;20438;-67
2022/06/26 10:57:38;;;;;;;3.53;3.23;;;27.50;50.40;;;;;;5074488;28;20450;-65
2022/06/26 11:00:10;;;;;;;5.60;4.13;;;27.60;51.00;;;;;;5074344;28;20451;-66
2022/06/26 11:02:39;;;;;;;3.63;3.33;;;27.60;51.30;;;;;;5074857;28;20471;-66
2022/06/26 11:05:09;;;;;;;4.10;3.70;;;27.60;51.60;;;;;;5074838;28;20451;-65
2022/06/26 11:07:46;;;;;;;3.73;3.43;;;27.50;51.90;;;;;;5073893;28;20527;-64
2022/06/26 11:10:15;;;;;;;3.87;3.57;;;27.50;51.90;;;;;;5073737;28;20528;-67
2022/06/26 11:12:45;;;;;;;3.97;3.67;;;27.60;51.70;;;;;;5073805;28;20470;-67
2022/06/26 11:15:27;;;;;;;4.30;3.83;;;27.70;51.50;;;;;;5073403;28;20450;-67
2022/06/26 11:17:59;;;;;;;4.60;3.73;;;27.80;51.30;;;;;;5073432;28;20427;-66
2022/06/26 11:20:49;;;;;;;4.30;3.90;;;27.80;51.40;;;;;;5073767;28;20467;-64
2022/06/26 11:23:20;;;;;;;8.17;4.20;;;27.80;51.50;;;;;;5071817;28;20546;-67
2022/06/26 11:25:49;;;;;;;3.60;3.40;;;27.90;51.70;;;;;;5071661;28;20535;-65
2022/06/26 11:28:17;;;;;;;3.83;3.63;;;27.90;51.80;;;;;;5071831;28;20943;-66
2022/06/26 11:30:46;;;;;;;3.87;3.57;;;28.00;51.70;;;;;;5071658;28;20490;-66
2022/06/26 11:33:14;;;;;;;4.13;3.83;;;28.10;51.60;;;;;;5073037;28;20444;-66
2022/06/26 11:35:42;;;;;;;4.10;3.80;;;28.20;51.60;;;;;;5071405;28;20459;-66
2022/06/26 11:38:18;;;;;;;4.53;4.10;;;28.30;51.40;;;;;;5073219;28;20443;-65
2022/06/26 11:40:46;;;;;;;5.00;4.50;;;28.40;51.30;;;;;;5073151;28;20427;-64
2022/06/26 11:43:15;;;;;;;4.67;4.23;;;28.30;51.20;;;;;;5072373;28;20508;-65
2022/06/26 11:45:43;;;;;;;4.80;4.40;;;28.20;51.50;;;;;;5072413;28;20463;-65
2022/06/26 11:48:16;;;;;;;3.77;3.50;;;28.10;51.60;;;;;;5073454;28;20477;-66
2022/06/26 11:50:45;;;;;;;4.40;4.10;;;28.10;51.80;;;;;;5073353;28;20982;-66
2022/06/26 11:53:20;;;;;;;3.80;3.50;;;27.90;51.90;;;;;;5072540;28;20551;-65
2022/06/26 11:55:50;;;;;;;4.77;3.80;;;27.60;52.30;;;;;;5072999;28;20435;-66
2022/06/26 11:58:18;;;;;;;4.00;3.70;;;27.40;52.90;;;;;;5072391;28;20451;-66
2022/06/26 12:00:46;;;;;;;5.73;4.20;;;27.10;53.60;;;;;;5072612;28;20435;-66
2022/06/26 12:03:14;;;;;;;3.77;3.47;;;26.90;54.20;;;;;;5072371;28;20449;-66
2022/06/26 12:05:45;;;;;;;4.10;3.70;;;26.70;54.70;;;;;;5072866;28;20443;-65
2022/06/26 12:08:17;;;;;;;4.10;3.80;;;26.60;55.20;;;;;;5072577;28;20497;-66
2022/06/26 12:10:49;;;;;;;4.53;3.53;;;26.50;55.50;;;;;;5072866;28;20482;-65
2022/06/26 12:13:24;;;;;;;6.37;3.43;;;26.50;55.60;;;;;;5073111;28;20439;-65
2022/06/26 12:15:52;;;;;;;3.97;3.67;;;26.70;55.50;;;;;;5072545;28;20430;-65
2022/06/26 12:18:19;;;;;;;3.40;3.10;;;26.90;55.20;;;;;;5072567;28;20885;-65
2022/06/26 12:20:52;;;;;;;3.63;3.33;;;27.30;54.50;;;;;;5072684;28;20522;-65
2022/06/26 12:23:31;;;;;;;3.57;3.37;;;27.60;53.90;;;;;;5072574;28;20863;-65
2022/06/26 12:26:07;;;;;;;3.23;3.03;;;28.10;52.70;;;;;;5072791;28;20442;-66
2022/06/26 12:28:42;;;;;;;3.70;3.40;;;28.20;52.20;;;;;;5072780;28;20438;-66
2022/06/26 12:31:10;;;;;;;3.60;3.30;;;28.40;52.00;;;;;;5075311;28;20490;-66
2022/06/26 12:33:37;;;;;;;3.20;3.00;;;28.80;51.20;;;;;;5076758;28;20442;-66
2022/06/26 12:36:05;;;;;;;4.07;3.27;;;29.20;50.10;;;;;;5077022;28;20926;-65
2022/06/26 12:38:35;;;;;;;3.17;2.97;;;29.70;48.90;;;;;;5076606;28;20989;-65
2022/06/26 12:41:02;;;;;;;2.97;2.67;;;30.00;48.00;;;;;;5077066;28;20786;-66
2022/06/26 12:43:31;;;;;;;3.10;2.90;;;30.10;47.70;;;;;;5076603;28;20442;-65
2022/06/26 12:45:58;;;;;;;3.23;2.90;;;30.00;47.60;;;;;;5076410;28;20443;-66
2022/06/26 12:48:26;;;;;;;4.80;3.20;;;29.90;47.80;;;;;;5076422;28;20446;-65
2022/06/26 12:50:53;;;;;;;4.40;3.33;;;29.50;48.10;;;;;;5076470;28;20506;-67
2022/06/26 12:53:20;;;;;;;4.27;3.17;;;29.00;48.70;;;;;;5076496;28;20439;-65
2022/06/26 12:55:48;;;;;;;3.50;3.30;;;28.60;49.50;;;;;;5076477;28;20872;-64
2022/06/26 12:58:15;;;;;;;2.77;2.57;;;28.50;49.80;;;;;;5076888;28;20443;-65
2022/06/26 13:00:44;;;;;;;4.47;3.10;;;28.50;49.90;;;;;;5076380;28;21011;-65
2022/06/26 13:03:11;;;;;;;4.50;4.00;;;28.60;49.70;;;;;;5076375;28;20860;-65
2022/06/26 13:05:38;;;;;;;3.63;3.33;;;28.70;49.60;;;;;;5076450;28;20847;-66
2022/06/26 13:08:06;;;;;;;3.10;2.90;;;28.80;49.30;;;;;;5075925;28;20462;-66